createdAt,value
2018-07-12T00:02:05.269Z,3.40
2018-07-12T00:04:32.446Z,3.90
2018-07-12T00:06:59.638Z,3.20
2018-07-12T00:09:26.839Z,3.20
2018-07-12T00:11:54.132Z,3.45
2018-07-12T00:14:21.396Z,3.77
2018-07-12T00:16:48.570Z,3.45
2018-07-12T00:19:15.772Z,4.20
2018-07-12T00:21:42.978Z,4.00
2018-07-12T00:24:10.179Z,3.98
2018-07-12T00:26:37.372Z,3.85
2018-07-12T00:29:04.562Z,3.90
2018-07-12T00:31:31.785Z,4.00
2018-07-12T00:33:58.974Z,4.03
2018-07-12T00:36:26.157Z,3.58
2018-07-12T00:38:53.351Z,3.65
2018-07-12T00:41:20.647Z,3.72
2018-07-12T00:43:47.853Z,3.70
2018-07-12T00:46:15.047Z,3.45
2018-07-12T00:48:42.262Z,3.42
2018-07-12T00:51:09.448Z,3.17
2018-07-12T00:53:36.664Z,3.25
2018-07-12T00:56:03.853Z,3.30
2018-07-12T00:58:31.059Z,3.20
2018-07-12T01:00:58.246Z,3.17
2018-07-12T01:03:25.466Z,3.42
2018-07-12T01:05:53.209Z,3.80
2018-07-12T01:08:20.411Z,3.40
2018-07-12T01:10:47.618Z,3.67
2018-07-12T01:13:14.803Z,3.70
2018-07-12T01:15:42.023Z,3.33
2018-07-12T01:18:09.227Z,3.65
2018-07-12T01:20:36.410Z,3.90
2018-07-12T01:40:21.523Z,3.37
2018-07-12T01:42:48.708Z,3.40
2018-07-12T01:45:15.917Z,3.42
2018-07-12T01:47:43.133Z,3.30
2018-07-12T01:50:10.342Z,3.77
2018-07-12T01:52:37.531Z,3.25
2018-07-12T01:55:05.007Z,3.80
2018-07-12T01:57:32.202Z,3.62
2018-07-12T01:59:59.403Z,3.85
2018-07-12T02:02:26.867Z,4.12
2018-07-12T02:04:54.325Z,3.67
2018-07-12T02:07:21.775Z,3.67
2018-07-12T02:09:49.004Z,3.77
2018-07-12T02:12:16.205Z,3.85
2018-07-12T02:14:43.414Z,3.90
2018-07-12T02:17:10.647Z,3.60
2018-07-12T02:19:37.857Z,3.90
2018-07-12T02:22:05.063Z,3.92
2018-07-12T02:24:32.271Z,3.47
2018-07-12T02:26:59.472Z,3.62
2018-07-12T02:29:26.678Z,4.00
2018-07-12T02:31:53.879Z,4.00
2018-07-12T02:34:21.219Z,4.08
2018-07-12T02:36:48.421Z,4.00
2018-07-12T02:39:15.626Z,3.72
2018-07-12T02:41:42.857Z,3.90
2018-07-12T02:44:10.058Z,4.37
2018-07-12T02:46:37.307Z,4.05
2018-07-12T02:49:04.754Z,4.00
2018-07-12T02:51:32.224Z,4.00
2018-07-12T02:53:59.687Z,3.95
2018-07-12T02:56:27.150Z,4.00
2018-07-12T02:58:54.351Z,4.17
2018-07-12T03:01:21.564Z,3.30
2018-07-12T03:03:49.013Z,3.55
2018-07-12T03:06:16.224Z,3.65
2018-07-12T03:08:43.436Z,3.70
2018-07-12T03:11:10.709Z,3.95
2018-07-12T03:13:37.955Z,3.65
2018-07-12T03:16:05.444Z,3.85
2018-07-12T03:18:32.660Z,3.55
2018-07-12T03:20:59.883Z,4.12
2018-07-12T03:23:27.081Z,3.62
2018-07-12T03:25:54.326Z,3.77
2018-07-12T03:28:21.512Z,4.37
2018-07-12T03:30:48.749Z,4.03
2018-07-12T03:33:15.970Z,3.85
2018-07-12T03:35:43.192Z,4.35
2018-07-12T03:38:10.391Z,3.77
2018-07-12T03:40:37.653Z,4.30
2018-07-12T03:43:04.826Z,3.90
2018-07-12T03:45:32.044Z,3.58
2018-07-12T03:47:59.250Z,3.92
2018-07-12T03:50:26.461Z,3.83
2018-07-12T03:52:53.691Z,3.77
2018-07-12T03:55:20.895Z,4.47
2018-07-12T03:57:48.543Z,4.08
2018-07-12T04:00:15.739Z,3.85
2018-07-12T04:02:42.970Z,3.62
2018-07-12T04:05:10.180Z,4.25
2018-07-12T04:07:37.391Z,3.90
2018-07-12T04:10:04.632Z,3.65
2018-07-12T04:12:31.843Z,4.25
2018-07-12T04:14:59.048Z,3.83
2018-07-12T04:17:29.857Z,4.10
2018-07-12T04:19:57.992Z,3.70
2018-07-12T04:22:25.699Z,3.87
2018-07-12T04:24:52.898Z,4.05
2018-07-12T04:27:20.560Z,4.25
2018-07-12T04:29:48.458Z,4.28
2018-07-12T04:32:16.040Z,3.60
2018-07-12T04:34:43.755Z,3.80
2018-07-12T04:37:10.946Z,4.30
2018-07-12T04:39:38.152Z,4.25
2018-07-12T04:42:05.384Z,4.28
2018-07-12T04:44:32.650Z,4.33
2018-07-12T04:46:59.957Z,4.30
2018-07-12T04:49:27.160Z,4.40
2018-07-12T04:51:55.761Z,4.45
2018-07-12T04:54:23.294Z,4.10
2018-07-12T04:56:50.782Z,4.37
2018-07-12T04:59:18.855Z,4.55
2018-07-12T05:01:46.519Z,4.60
2018-07-12T05:04:13.748Z,4.15
2018-07-12T05:06:40.957Z,4.67
2018-07-12T05:09:09.211Z,4.67
2018-07-12T05:11:36.446Z,4.25
2018-07-12T05:14:03.703Z,4.35
2018-07-12T05:16:30.923Z,4.35
2018-07-12T05:18:58.161Z,4.42
2018-07-12T05:21:25.372Z,4.60
2018-07-12T05:23:52.594Z,4.83
2018-07-12T05:26:19.785Z,4.60
2018-07-12T05:28:46.997Z,4.28
2018-07-12T05:31:14.215Z,5.05
2018-07-12T05:33:41.717Z,4.30
2018-07-12T05:37:15.388Z,4.67
2018-07-12T05:39:43.603Z,4.17
2018-07-12T05:42:11.860Z,4.65
2018-07-12T05:44:40.098Z,4.50
2018-07-12T05:47:08.309Z,4.12
2018-07-12T05:49:37.502Z,4.22
2018-07-12T05:52:05.756Z,4.35
2018-07-12T05:54:33.983Z,4.12
2018-07-12T05:57:02.186Z,4.37
2018-07-12T05:59:30.389Z,4.53
2018-07-12T06:02:04.029Z,4.37
2018-07-12T06:04:32.224Z,3.98
2018-07-12T06:07:00.436Z,4.25
2018-07-12T06:09:28.666Z,4.12
2018-07-12T06:11:56.876Z,4.10
2018-07-12T06:14:25.095Z,4.05
2018-07-12T06:16:53.280Z,4.20
2018-07-12T06:19:21.273Z,3.98
2018-07-12T06:21:49.459Z,4.50
2018-07-12T06:24:17.738Z,4.08
2018-07-12T06:26:45.960Z,4.30
2018-07-12T06:29:14.169Z,4.28
2018-07-12T06:31:42.468Z,4.08
2018-07-12T06:34:10.674Z,4.62
2018-07-12T06:36:38.910Z,4.28
2018-07-12T06:39:07.438Z,3.90
2018-07-12T06:41:35.673Z,4.37
2018-07-12T06:44:03.913Z,4.22
2018-07-12T06:46:32.216Z,4.22
2018-07-12T06:49:00.447Z,4.62
2018-07-12T06:51:28.654Z,4.80
2018-07-12T06:53:56.856Z,4.75
2018-07-12T06:56:25.108Z,4.80
2018-07-12T06:58:53.542Z,4.58
2018-07-12T07:01:22.279Z,4.20
2018-07-12T07:03:50.501Z,4.45
2018-07-12T07:06:18.701Z,4.30
2018-07-12T07:08:46.894Z,4.83
2018-07-12T07:11:15.161Z,5.00
2018-07-12T07:13:43.398Z,4.50
2018-07-12T07:16:11.597Z,4.75
2018-07-12T07:18:39.808Z,4.45
2018-07-12T07:21:08.017Z,4.65
2018-07-12T07:23:36.246Z,4.92
2018-07-12T07:26:04.501Z,4.58
2018-07-12T07:28:32.702Z,4.78
2018-07-12T07:31:00.910Z,4.37
2018-07-12T07:36:03.703Z,4.45
2018-07-12T07:38:31.893Z,4.50
2018-07-12T07:41:00.092Z,4.70
2018-07-12T07:43:28.299Z,4.30
2018-07-12T07:45:56.501Z,4.25
2018-07-12T07:48:24.468Z,5.00
2018-07-12T07:50:52.705Z,4.83
2018-07-12T07:53:20.893Z,4.00
2018-07-12T07:55:49.138Z,4.50
2018-07-12T07:58:17.379Z,4.78
2018-07-12T08:00:45.635Z,5.50
2018-07-12T08:03:13.838Z,5.92
2018-07-12T08:05:42.057Z,5.65
2018-07-12T08:08:10.298Z,5.17
2018-07-12T08:10:38.511Z,6.17
2018-07-12T08:13:06.731Z,4.90
2018-07-12T08:15:35.031Z,5.80
2018-07-12T08:18:03.316Z,4.67
2018-07-12T08:20:31.532Z,5.10
2018-07-12T08:22:59.745Z,7.37
2018-07-12T08:25:27.976Z,7.80
2018-07-12T08:28:01.506Z,7.20
2018-07-12T08:30:29.720Z,5.70
2018-07-12T08:32:57.927Z,6.17
2018-07-12T08:35:26.129Z,5.95
2018-07-12T08:37:54.379Z,7.30
2018-07-12T08:40:22.590Z,7.97
2018-07-12T08:42:50.848Z,8.08
2018-07-12T08:45:18.979Z,9.58
2018-07-12T08:47:47.201Z,7.65
2018-07-12T08:50:15.582Z,7.28
2018-07-12T08:52:43.810Z,6.95
2018-07-12T08:55:11.992Z,7.12
2018-07-12T08:57:40.215Z,6.97
2018-07-12T09:00:08.438Z,6.62
2018-07-12T09:02:36.665Z,8.08
2018-07-12T09:05:04.874Z,8.43
2018-07-12T09:07:33.068Z,8.30
2018-07-12T09:10:01.287Z,7.97
2018-07-12T09:12:29.475Z,7.53
2018-07-12T09:14:57.700Z,9.20
2018-07-12T09:17:25.907Z,8.73
2018-07-12T09:19:54.240Z,8.00
2018-07-12T09:22:22.447Z,7.67
2018-07-12T09:24:50.620Z,8.55
2018-07-12T09:27:18.820Z,6.90
2018-07-12T09:29:47.021Z,7.47
2018-07-12T09:32:15.216Z,8.18
2018-07-12T09:34:43.473Z,7.55
2018-07-12T09:37:11.665Z,7.30
2018-07-12T09:39:39.889Z,6.42
2018-07-12T09:42:08.090Z,7.97
2018-07-12T09:44:36.287Z,7.75
2018-07-12T09:47:04.485Z,8.60
2018-07-12T09:49:32.671Z,6.47
2018-07-12T09:52:00.891Z,6.05
2018-07-12T09:54:29.096Z,5.78
2018-07-12T09:57:08.687Z,6.58
2018-07-12T09:59:36.867Z,6.83
2018-07-12T10:02:10.573Z,7.33
2018-07-12T10:04:38.803Z,7.28
2018-07-12T10:07:12.513Z,7.08
2018-07-12T10:10:01.466Z,6.12
2018-07-12T10:12:37.752Z,7.95
2018-07-12T10:15:09.037Z,7.40
2018-07-12T10:17:37.278Z,7.35
2018-07-12T10:20:06.220Z,6.50
2018-07-12T10:22:34.434Z,7.28
2018-07-12T10:25:02.668Z,7.58
2018-07-12T10:27:30.882Z,5.62
2018-07-12T10:29:59.106Z,6.22
2018-07-12T10:32:27.292Z,7.10
2018-07-12T10:34:55.524Z,6.72
2018-07-12T10:37:23.712Z,7.55
2018-07-12T10:39:51.930Z,7.25
2018-07-12T10:42:20.206Z,6.70
2018-07-12T10:44:48.424Z,6.40
2018-07-12T10:47:16.626Z,6.37
2018-07-12T10:49:44.866Z,6.40
2018-07-12T10:52:13.056Z,6.30
2018-07-12T10:54:41.053Z,5.70
2018-07-12T10:57:09.268Z,5.95
2018-07-12T10:59:37.752Z,6.70
2018-07-12T11:02:06.051Z,5.53
2018-07-12T11:04:34.300Z,5.70
2018-07-12T11:07:02.516Z,5.60
2018-07-12T11:09:30.760Z,5.70
2018-07-12T11:11:58.979Z,5.20
2018-07-12T11:14:27.174Z,5.47
2018-07-12T11:16:55.386Z,5.50
2018-07-12T11:19:23.610Z,5.30
2018-07-12T11:21:52.213Z,5.60
2018-07-12T11:24:20.410Z,4.85
2018-07-12T11:26:48.655Z,5.33
2018-07-12T11:29:16.885Z,5.75
2018-07-12T11:31:45.074Z,4.80
2018-07-12T11:34:13.295Z,4.78
2018-07-12T11:36:41.529Z,5.00
2018-07-12T11:39:09.741Z,4.20
2018-07-12T11:41:37.712Z,4.60
2018-07-12T11:44:05.934Z,4.80
2018-07-12T11:46:34.139Z,4.53
2018-07-12T11:49:02.341Z,4.30
2018-07-12T11:51:30.550Z,4.67
2018-07-12T11:53:58.742Z,4.03
2018-07-12T11:56:26.952Z,4.17
2018-07-12T11:58:55.164Z,4.80
2018-07-12T12:01:23.455Z,4.17
2018-07-12T12:03:51.695Z,3.75
2018-07-12T12:06:19.936Z,4.58
2018-07-12T12:08:48.118Z,4.25
2018-07-12T12:11:16.340Z,4.65
2018-07-12T12:13:44.549Z,4.80
2018-07-12T12:16:12.743Z,4.80
2018-07-12T12:18:40.939Z,4.50
2018-07-12T12:21:09.162Z,4.20
2018-07-12T12:23:37.357Z,4.45
2018-07-12T12:26:05.560Z,4.55
2018-07-12T12:28:33.765Z,3.98
2018-07-12T12:31:01.975Z,3.70
2018-07-12T12:33:30.260Z,3.77
2018-07-12T12:35:58.402Z,4.22
2018-07-12T12:38:26.584Z,4.20
2018-07-12T12:40:54.795Z,3.87
2018-07-12T12:43:22.974Z,4.08
2018-07-12T12:45:51.159Z,4.10
2018-07-12T12:48:19.376Z,3.95
2018-07-12T12:50:47.615Z,3.30
2018-07-12T12:53:15.792Z,3.72
2018-07-12T12:55:44.100Z,4.00
2018-07-12T12:58:12.327Z,3.92
2018-07-12T13:00:40.292Z,4.22
2018-07-12T13:03:08.283Z,4.05
2018-07-12T13:05:36.691Z,4.40
2018-07-12T13:08:04.991Z,3.50
2018-07-12T13:10:34.006Z,4.12
2018-07-12T13:13:02.315Z,4.17
2018-07-12T13:15:30.492Z,3.80
2018-07-12T13:17:58.517Z,3.80
2018-07-12T13:20:26.736Z,3.95
2018-07-12T13:22:54.708Z,3.47
2018-07-12T13:25:23.149Z,3.52
2018-07-12T13:27:51.418Z,3.40
2018-07-12T13:30:19.772Z,3.37
2018-07-12T13:32:47.799Z,3.37
2018-07-12T13:35:15.979Z,2.83
2018-07-12T13:37:44.232Z,3.40
2018-07-12T13:40:12.443Z,3.15
2018-07-12T13:42:40.643Z,3.08
2018-07-12T13:45:08.845Z,3.77
2018-07-12T13:47:36.823Z,3.50
2018-07-12T13:50:05.077Z,3.22
2018-07-12T13:52:33.306Z,3.00
2018-07-12T13:55:01.508Z,3.20
2018-07-12T13:57:29.738Z,3.12
2018-07-12T13:59:57.694Z,2.70
2018-07-12T14:02:25.904Z,3.30
2018-07-12T14:04:54.131Z,3.10
2018-07-12T14:07:22.300Z,3.08
2018-07-12T14:09:50.506Z,2.95
2018-07-12T14:12:18.744Z,2.72
2018-07-12T14:14:46.964Z,2.67
2018-07-12T14:17:15.187Z,2.70
2018-07-12T14:19:43.424Z,2.98
2018-07-12T14:22:11.968Z,2.62
2018-07-12T14:24:40.187Z,2.70
2018-07-12T14:27:08.413Z,2.80
2018-07-12T14:29:36.605Z,2.27
2018-07-12T14:32:04.800Z,2.42
2018-07-12T14:34:33.029Z,1.90
2018-07-12T14:37:00.968Z,2.30
2018-07-12T14:39:29.228Z,2.10
2018-07-12T14:41:57.472Z,1.75
2018-07-12T14:44:25.706Z,2.27
2018-07-12T14:46:53.954Z,2.20
2018-07-12T14:49:22.143Z,2.40
2018-07-12T14:51:50.348Z,2.10
2018-07-12T14:54:18.585Z,2.00
2018-07-12T14:56:46.793Z,2.00
2018-07-12T14:59:15.016Z,2.35
2018-07-12T15:01:42.989Z,2.52
2018-07-12T15:04:11.261Z,2.30
2018-07-12T15:06:39.482Z,2.45
2018-07-12T15:09:08.536Z,2.05
2018-07-12T15:11:36.679Z,2.08
2018-07-12T15:14:04.955Z,2.20
2018-07-12T15:16:33.213Z,2.40
2018-07-12T15:19:01.452Z,2.22
2018-07-12T15:21:29.784Z,2.45
2018-07-12T15:23:58.002Z,2.35
2018-07-12T15:26:26.271Z,2.40
2018-07-12T15:28:54.403Z,2.10
2018-07-12T15:31:22.753Z,2.12
2018-07-12T15:33:50.998Z,2.10
2018-07-12T15:36:19.186Z,2.10
2018-07-12T15:38:47.395Z,2.00
2018-07-12T15:41:15.654Z,2.30
2018-07-12T15:43:43.817Z,2.40
2018-07-12T15:46:12.000Z,1.90
2018-07-12T15:48:40.218Z,2.20
2018-07-12T15:51:08.418Z,2.15
2018-07-12T15:53:36.380Z,2.10
2018-07-12T15:56:04.550Z,2.08
2018-07-12T15:58:32.771Z,1.60
2018-07-12T16:01:01.000Z,2.20
2018-07-12T16:03:29.215Z,1.80
2018-07-12T16:05:57.434Z,1.90
2018-07-12T16:08:25.664Z,1.65
2018-07-12T16:10:53.624Z,2.50
2018-07-12T16:13:21.815Z,2.17
2018-07-12T16:15:50.054Z,2.20
2018-07-12T16:18:18.260Z,2.12
2018-07-12T16:20:46.466Z,2.45
2018-07-12T16:23:14.682Z,2.20
2018-07-12T16:25:42.908Z,2.35
2018-07-12T16:28:10.870Z,2.33
2018-07-12T16:30:39.072Z,2.15
2018-07-12T16:33:07.283Z,2.55
2018-07-12T16:35:35.490Z,2.20
2018-07-12T16:38:03.712Z,2.30
2018-07-12T16:40:31.965Z,2.45
2018-07-12T16:43:00.182Z,2.40
2018-07-12T16:45:28.401Z,2.12
2018-07-12T16:47:56.616Z,2.08
2018-07-12T16:50:24.828Z,2.00
2018-07-12T16:52:53.266Z,2.20
2018-07-12T16:55:21.517Z,2.10
2018-07-12T16:57:49.727Z,2.30
2018-07-12T17:00:19.576Z,2.40
2018-07-12T17:02:48.669Z,2.30
2018-07-12T17:05:16.653Z,1.80
2018-07-12T17:07:44.880Z,2.00
2018-07-12T17:10:13.179Z,2.22
2018-07-12T17:12:41.486Z,2.50
2018-07-12T17:15:09.706Z,2.17
2018-07-12T17:17:37.905Z,2.40
2018-07-12T17:20:06.185Z,2.45
2018-07-12T17:22:34.407Z,2.15
2018-07-12T17:25:02.787Z,2.70
2018-07-12T17:27:30.776Z,2.60
2018-07-12T17:29:58.993Z,2.40
2018-07-12T17:32:26.958Z,2.45
2018-07-12T17:34:55.173Z,2.00
2018-07-12T17:37:23.397Z,2.40
2018-07-12T17:39:51.589Z,2.40
2018-07-12T17:42:19.811Z,2.42
2018-07-12T17:44:48.022Z,2.55
2018-07-12T17:47:16.261Z,2.30
2018-07-12T17:49:44.499Z,2.50
2018-07-12T17:54:46.309Z,2.30
2018-07-12T17:57:14.513Z,2.10
2018-07-12T17:59:42.713Z,2.05
2018-07-12T18:02:10.927Z,2.65
2018-07-12T18:04:39.195Z,2.83
2018-07-12T18:07:07.393Z,2.62
2018-07-12T18:09:35.610Z,2.40
2018-07-12T18:12:03.813Z,2.77
2018-07-12T18:14:31.743Z,2.30
2018-07-12T18:16:59.961Z,2.72
2018-07-12T18:19:28.657Z,2.50
2018-07-12T18:21:56.652Z,2.50
2018-07-12T18:24:24.815Z,2.80
2018-07-12T18:26:53.006Z,2.70
2018-07-12T18:29:21.218Z,2.72
2018-07-12T18:31:49.423Z,2.70
2018-07-12T18:34:17.649Z,2.58
2018-07-12T18:36:45.838Z,2.60
2018-07-12T18:39:14.060Z,2.87
2018-07-12T18:41:42.246Z,2.75
2018-07-12T18:44:10.430Z,2.85
2018-07-12T18:46:38.661Z,2.33
2018-07-12T18:49:06.962Z,2.95
2018-07-12T18:51:35.137Z,2.85
2018-07-12T18:54:03.340Z,2.80
2018-07-12T18:56:31.570Z,2.90
2018-07-12T18:58:59.783Z,2.75
2018-07-12T19:01:28.027Z,2.87
2018-07-12T19:03:56.228Z,2.95
2018-07-12T19:06:24.527Z,2.90
2018-07-12T19:08:52.777Z,3.20
2018-07-12T19:11:20.926Z,3.50
2018-07-12T19:13:48.871Z,3.62
2018-07-12T19:16:17.394Z,3.20
2018-07-12T19:18:45.875Z,3.42
2018-07-12T19:21:14.173Z,3.30
2018-07-12T19:23:42.404Z,4.10
2018-07-12T19:26:10.682Z,3.40
2018-07-12T19:28:38.912Z,3.20
2018-07-12T19:31:07.201Z,3.52
2018-07-12T19:33:35.452Z,3.75
2018-07-12T19:36:03.750Z,3.70
2018-07-12T19:38:31.964Z,3.08
2018-07-12T19:41:00.298Z,3.30
2018-07-12T19:43:28.529Z,3.60
2018-07-12T19:45:56.754Z,3.45
2018-07-12T19:48:24.730Z,3.22
2018-07-12T19:50:52.678Z,3.27
2018-07-12T19:53:20.897Z,3.50
2018-07-12T19:55:49.085Z,3.47
2018-07-12T19:58:17.290Z,3.35
2018-07-12T20:00:45.511Z,3.80
2018-07-12T20:03:13.718Z,3.60
2018-07-12T20:05:41.890Z,3.58
2018-07-12T20:08:10.103Z,3.72
2018-07-12T20:10:38.363Z,3.50
2018-07-12T20:13:06.557Z,3.55
2018-07-12T20:15:34.792Z,3.45
2018-07-12T20:18:02.951Z,3.55
2018-07-12T20:20:31.246Z,3.30
2018-07-12T20:22:59.340Z,3.45
2018-07-12T20:25:27.666Z,3.25
2018-07-12T20:27:55.851Z,3.55
2018-07-12T20:30:24.079Z,3.75
2018-07-12T20:32:52.273Z,3.65
2018-07-12T20:35:20.479Z,3.85
2018-07-12T20:37:48.672Z,3.83
2018-07-12T20:40:16.903Z,3.50
2018-07-12T20:42:46.116Z,3.70
2018-07-12T20:45:14.323Z,4.08
2018-07-12T20:47:42.516Z,3.70
2018-07-12T20:50:10.751Z,3.92
2018-07-12T20:52:38.925Z,3.80
2018-07-12T20:55:07.170Z,3.55
2018-07-12T20:57:35.358Z,3.75
2018-07-12T21:00:03.620Z,3.80
2018-07-12T21:02:31.820Z,3.87
2018-07-12T21:05:00.071Z,3.98
2018-07-12T21:07:28.344Z,4.17
2018-07-12T21:09:56.533Z,4.12
2018-07-12T21:12:24.767Z,4.60
2018-07-12T21:14:52.978Z,4.60
2018-07-12T21:17:21.212Z,4.25
2018-07-12T21:19:49.464Z,3.98
2018-07-12T21:22:17.706Z,4.28
2018-07-12T21:24:45.934Z,4.28
2018-07-12T21:27:14.123Z,3.87
2018-07-12T21:29:42.106Z,4.30
2018-07-12T21:32:10.311Z,4.10
2018-07-12T21:34:38.509Z,4.25
2018-07-12T21:37:06.713Z,4.40
2018-07-12T21:39:34.937Z,4.03
2018-07-12T21:42:03.268Z,4.53
2018-07-12T21:44:31.541Z,4.72
2018-07-12T21:46:59.707Z,4.60
2018-07-12T21:49:27.874Z,4.33
2018-07-12T21:51:56.066Z,4.40
2018-07-12T21:54:24.243Z,4.55
2018-07-12T21:56:52.545Z,4.60
2018-07-12T21:59:20.768Z,4.70
2018-07-12T22:01:48.991Z,4.12
2018-07-12T22:04:17.187Z,4.65
2018-07-12T22:06:55.929Z,4.47
2018-07-12T22:09:24.110Z,4.97
2018-07-12T22:11:52.342Z,4.55
2018-07-12T22:14:20.529Z,4.78
2018-07-12T22:16:48.738Z,4.90
2018-07-12T22:19:16.946Z,4.92
2018-07-12T22:21:45.132Z,4.30
2018-07-12T22:24:13.324Z,4.28
2018-07-12T22:26:41.522Z,4.70
2018-07-12T22:29:09.702Z,4.58
2018-07-12T22:31:37.883Z,4.95
2018-07-12T22:34:06.192Z,4.90
2018-07-12T22:36:34.418Z,4.78
2018-07-12T22:39:02.627Z,4.80
2018-07-12T22:41:30.826Z,4.78
2018-07-12T22:43:59.031Z,4.50
2018-07-12T22:46:26.999Z,5.00
2018-07-12T22:48:55.269Z,5.00
2018-07-12T22:51:23.400Z,5.08
2018-07-12T22:53:51.629Z,5.10
2018-07-12T22:56:20.115Z,4.83
2018-07-12T22:58:48.304Z,4.90
2018-07-12T23:01:16.256Z,5.15
2018-07-12T23:03:47.938Z,5.20
2018-07-12T23:06:16.151Z,5.30
2018-07-12T23:08:49.949Z,5.00
2018-07-12T23:11:18.165Z,5.05
2018-07-12T23:13:46.352Z,5.30
2018-07-12T23:16:14.580Z,4.72
2018-07-12T23:18:42.784Z,5.30
2018-07-12T23:21:10.990Z,5.65
2018-07-12T23:23:39.204Z,5.45
2018-07-12T23:26:07.445Z,5.35
2018-07-12T23:28:36.264Z,5.87
2018-07-12T23:31:04.452Z,5.22
2018-07-12T23:33:32.619Z,5.37
2018-07-12T23:36:00.761Z,5.62
2018-07-12T23:38:28.969Z,6.10
2018-07-12T23:40:57.143Z,5.97
2018-07-12T23:43:25.336Z,6.25
2018-07-12T23:45:53.538Z,6.40
